Time;durP1;ratioP1;P1;durP2;ratioP2;P2;SDS_P1;SDS_P2;PMS_P1;PMS_P2;Temp;Humidity;BMP_temperature;BMP_pressure;BME280_temperature;BME280_humidity;BME280_pressure;Samples;Min_cycle;Max_cycle;Signal;HPM_P1;HPM_P2
2024/01/06 00:02:06;;;;;;;26.88;11.80;;;3.60;99.90;;;;;;5113917;28;20075;-58
2024/01/06 00:04:32;;;;;;;25.60;11.52;;;4.10;99.90;;;;;;5114554;28;20568;-58
2024/01/06 00:06:57;;;;;;;23.00;11.80;;;4.10;99.90;;;;;;5102646;28;20169;-58
2024/01/06 00:09:23;;;;;;;25.58;12.85;;;4.70;99.90;;;;;;5101676;28;20079;-58
2024/01/06 00:11:49;;;;;;;25.35;11.57;;;4.70;99.90;;;;;;5114029;28;20036;-58
2024/01/06 00:14:15;;;;;;;26.05;13.50;;;4.70;99.90;;;;;;5033103;28;20047;-58
2024/01/06 00:16:40;;;;;;;26.88;13.48;;;3.90;99.90;;;;;;5029590;28;20044;-58
2024/01/06 00:19:06;;;;;;;25.15;12.52;;;4.70;99.90;;;;;;5106107;28;20071;-58
2024/01/06 00:21:32;;;;;;;25.73;12.63;;;3.60;99.90;;;;;;5088079;28;20553;-58
2024/01/06 00:23:57;;;;;;;27.88;13.88;;;4.80;99.90;;;;;;5101675;28;20054;-58
2024/01/06 00:26:26;;;;;;;28.48;13.50;;;4.80;99.90;;;;;;5106282;28;20039;-58
2024/01/06 00:28:52;;;;;;;31.80;14.02;;;3.60;99.90;;;;;;5109476;28;20486;-59
2024/01/06 00:31:17;;;;;;;26.08;12.73;;;3.50;99.90;;;;;;5113439;28;20092;-58
2024/01/06 00:33:43;;;;;;;29.23;13.30;;;3.50;99.90;;;;;;5113368;28;20046;-57
2024/01/06 00:36:09;;;;;;;25.10;12.55;;;3.40;99.90;;;;;;5108246;28;20042;-59
2024/01/06 00:38:35;;;;;;;26.77;11.90;;;4.80;99.90;;;;;;5113656;28;20551;-59
2024/01/06 00:41:01;;;;;;;27.67;12.82;;;3.80;99.90;;;;;;5077117;28;20051;-58
2024/01/06 00:43:27;;;;;;;25.02;11.98;;;3.50;99.90;;;;;;5110554;28;20047;-57
2024/01/06 00:45:52;;;;;;;27.73;13.43;;;4.70;99.90;;;;;;5112661;28;20047;-59
2024/01/06 00:48:18;;;;;;;31.55;13.40;;;4.50;99.90;;;;;;5113129;28;20035;-57
2024/01/06 00:50:44;;;;;;;28.05;13.23;;;4.20;99.90;;;;;;5113262;28;20931;-58
2024/01/06 00:53:09;;;;;;;34.15;14.60;;;4.20;99.90;;;;;;5028281;28;20037;-57
2024/01/06 00:55:35;;;;;;;28.23;12.75;;;3.40;99.90;;;;;;5029641;28;20404;-58
2024/01/06 00:58:01;;;;;;;30.42;13.90;;;4.10;99.90;;;;;;5029698;28;20069;-58
2024/01/06 01:00:27;;;;;;;25.77;13.02;;;4.70;99.90;;;;;;5031262;28;20492;-59
2024/01/06 01:02:53;;;;;;;26.73;13.82;;;4.90;99.90;;;;;;5102005;28;20078;-58
2024/01/06 01:05:19;;;;;;;26.85;12.15;;;4.10;99.90;;;;;;5107721;28;20059;-58
2024/01/06 01:07:44;;;;;;;29.67;13.27;;;4.60;99.90;;;;;;5112785;28;20046;-58
2024/01/06 01:10:10;;;;;;;26.45;13.88;;;3.60;99.90;;;;;;5110082;28;20032;-58
2024/01/06 01:12:36;;;;;;;27.63;13.98;;;4.70;99.90;;;;;;5112755;28;20074;-57
2024/01/06 01:15:03;;;;;;;30.65;13.98;;;3.50;99.90;;;;;;5112876;28;20036;-59
2024/01/06 01:17:29;;;;;;;26.38;12.73;;;3.10;99.90;;;;;;5112042;28;20047;-58
2024/01/06 01:19:55;;;;;;;26.88;12.38;;;3.30;99.90;;;;;;5031862;28;20090;-58
2024/01/06 01:22:21;;;;;;;31.75;14.27;;;3.10;99.90;;;;;;5029339;28;20041;-59
2024/01/06 01:24:46;;;;;;;28.48;12.48;;;4.50;99.90;;;;;;5049317;28;20099;-58
2024/01/06 01:27:12;;;;;;;32.78;13.75;;;4.40;99.90;;;;;;5101108;28;20038;-58
2024/01/06 01:29:38;;;;;;;33.80;13.98;;;4.10;99.90;;;;;;5110599;28;20402;-58
2024/01/06 01:32:04;;;;;;;30.83;14.25;;;4.30;99.90;;;;;;5100592;28;20039;-58
2024/01/06 01:34:30;;;;;;;32.35;13.95;;;3.20;99.90;;;;;;5112340;28;20031;-58
2024/01/06 01:36:56;;;;;;;40.53;16.33;;;4.10;99.90;;;;;;5112261;28;20089;-59
2024/01/06 01:39:21;;;;;;;34.00;15.15;;;3.70;99.90;;;;;;5111956;28;20059;-57
2024/01/06 01:41:47;;;;;;;33.30;15.23;;;3.40;99.90;;;;;;5112158;28;20039;-58
2024/01/06 01:44:12;;;;;;;34.58;15.75;;;4.40;99.90;;;;;;5112041;28;20095;-57
2024/01/06 01:46:39;;;;;;;39.97;15.93;;;3.10;99.90;;;;;;5111547;28;20048;-58
2024/01/06 01:49:05;;;;;;;39.22;16.38;;;3.60;99.90;;;;;;5107417;28;20043;-57
2024/01/06 01:51:33;;;;;;;36.45;15.40;;;3.70;99.90;;;;;;5112037;28;20031;-58
2024/01/06 01:54:03;;;;;;;36.75;15.48;;;3.20;99.90;;;;;;5071449;28;20043;-58
2024/01/06 01:56:34;;;;;;;39.47;16.20;;;2.90;99.90;;;;;;5111664;28;20058;-58
2024/01/06 01:59:10;;;;;;;38.28;15.70;;;3.60;99.90;;;;;;5111550;28;20505;-59
2024/01/06 02:01:36;;;;;;;44.95;20.05;;;2.90;99.90;;;;;;5111801;28;20040;-57
2024/01/06 02:04:02;;;;;;;43.72;18.73;;;4.30;99.90;;;;;;5111592;28;20092;-58
2024/01/06 02:06:27;;;;;;;47.97;20.38;;;4.30;99.90;;;;;;5111948;28;20081;-58
2024/01/06 02:08:54;;;;;;;54.28;21.58;;;3.10;99.90;;;;;;5107086;28;20060;-57
2024/01/06 02:11:19;;;;;;;45.92;20.73;;;4.00;99.90;;;;;;5022492;28;20114;-57
2024/01/06 02:13:45;;;;;;;46.25;18.85;;;4.20;99.90;;;;;;5107055;28;20115;-58
2024/01/06 02:16:11;;;;;;;38.63;16.10;;;3.30;99.90;;;;;;5105799;28;20046;-58
2024/01/06 02:18:36;;;;;;;39.65;17.25;;;2.90;99.90;;;;;;5111504;28;20042;-57
2024/01/06 02:21:02;;;;;;;38.58;16.33;;;3.80;99.90;;;;;;5081747;28;20081;-57
2024/01/06 02:23:29;;;;;;;38.30;17.90;;;3.50;99.90;;;;;;5108442;28;20043;-58
2024/01/06 02:25:55;;;;;;;35.35;15.98;;;4.00;99.90;;;;;;5105713;28;20135;-57
2024/01/06 02:28:21;;;;;;;37.10;16.48;;;3.40;99.90;;;;;;5111530;28;20106;-58
2024/01/06 02:30:47;;;;;;;34.63;15.55;;;2.90;99.90;;;;;;5110638;28;20035;-58
2024/01/06 02:33:13;;;;;;;35.65;15.10;;;2.70;99.90;;;;;;5110266;28;20035;-59
2024/01/06 02:35:40;;;;;;;34.13;14.85;;;4.10;99.90;;;;;;5111124;28;20053;-58
2024/01/06 02:38:06;;;;;;;32.08;14.90;;;4.00;99.90;;;;;;5110959;28;20040;-58
2024/01/06 02:40:32;;;;;;;34.10;15.18;;;3.20;99.90;;;;;;5110810;28;20050;-57
2024/01/06 02:42:58;;;;;;;38.45;15.35;;;3.00;99.90;;;;;;5111424;28;20043;-58
2024/01/06 02:45:24;;;;;;;36.40;14.98;;;3.60;99.90;;;;;;5111190;28;20039;-57
2024/01/06 02:47:50;;;;;;;33.80;15.75;;;2.60;99.90;;;;;;5110758;28;20057;-57
2024/01/06 02:50:15;;;;;;;39.42;16.58;;;4.00;99.90;;;;;;5111392;28;20031;-58
2024/01/06 02:52:41;;;;;;;32.40;15.60;;;4.00;99.90;;;;;;5111196;28;20119;-59
2024/01/06 02:55:07;;;;;;;34.42;16.17;;;3.00;99.90;;;;;;5085534;28;20097;-58
2024/01/06 02:57:32;;;;;;;36.38;16.40;;;3.90;99.90;;;;;;5096945;28;20110;-57
2024/01/06 02:59:58;;;;;;;33.58;15.77;;;3.20;99.90;;;;;;5105579;28;20051;-58
2024/01/06 03:02:24;;;;;;;34.45;15.23;;;4.00;99.90;;;;;;5110791;28;20066;-58
2024/01/06 03:04:50;;;;;;;37.20;16.95;;;3.90;99.90;;;;;;5105749;28;20058;-59
2024/01/06 03:07:16;;;;;;;42.30;17.08;;;4.00;99.90;;;;;;5111058;28;20043;-58
2024/01/06 03:09:41;;;;;;;48.75;18.35;;;3.60;99.90;;;;;;5110624;28;20124;-58
2024/01/06 03:12:07;;;;;;;38.53;16.55;;;3.10;99.90;;;;;;5111115;28;20471;-58
2024/01/06 03:14:36;;;;;;;37.63;16.23;;;3.30;99.90;;;;;;5110862;28;20028;-61
2024/01/06 03:17:02;;;;;;;32.88;14.48;;;3.50;99.90;;;;;;5110685;28;20066;-57
2024/01/06 03:19:28;;;;;;;34.65;15.50;;;3.30;99.90;;;;;;5103804;28;20626;-58
2024/01/06 03:21:54;;;;;;;31.40;13.65;;;3.80;99.90;;;;;;5111080;28;20039;-58
2024/01/06 03:24:21;;;;;;;35.22;15.52;;;2.60;99.90;;;;;;5110175;28;20038;-58
2024/01/06 03:26:47;;;;;;;33.15;14.93;;;3.90;99.90;;;;;;5110786;28;20120;-59
2024/01/06 03:29:12;;;;;;;33.88;15.10;;;3.80;99.90;;;;;;5110827;28;20067;-57
2024/01/06 03:31:41;;;;;;;32.80;15.57;;;3.40;99.90;;;;;;5110616;28;20044;-58
2024/01/06 03:34:08;;;;;;;41.30;16.30;;;3.90;99.90;;;;;;5114533;28;20024;-57
2024/01/06 03:36:34;;;;;;;38.35;15.57;;;3.50;99.90;;;;;;5114427;28;20043;-57
2024/01/06 03:39:00;;;;;;;38.45;17.42;;;3.10;99.90;;;;;;5112883;28;20505;-58
2024/01/06 03:41:25;;;;;;;38.60;17.45;;;3.40;99.90;;;;;;5082787;28;20060;-58
2024/01/06 03:43:51;;;;;;;40.80;17.15;;;2.50;99.90;;;;;;5109749;28;20454;-58
2024/01/06 03:46:16;;;;;;;37.78;15.80;;;2.60;99.90;;;;;;5110681;28;20067;-58
2024/01/06 03:48:42;;;;;;;36.45;15.82;;;2.90;99.90;;;;;;5112759;28;20031;-59
2024/01/06 03:51:09;;;;;;;32.20;13.98;;;3.10;99.90;;;;;;5114521;27;20039;-58
2024/01/06 03:53:34;;;;;;;34.20;15.95;;;2.40;99.90;;;;;;5114262;28;20032;-57
2024/01/06 03:56:00;;;;;;;36.45;16.05;;;3.00;99.90;;;;;;5114513;28;20134;-58
2024/01/06 03:58:26;;;;;;;35.42;14.10;;;2.80;99.90;;;;;;5114480;28;20434;-58
2024/01/06 04:00:52;;;;;;;42.10;16.25;;;2.40;99.90;;;;;;5094593;28;20040;-57
2024/01/06 04:03:17;;;;;;;43.00;17.23;;;3.80;99.90;;;;;;5101542;28;20491;-58
2024/01/06 04:05:43;;;;;;;39.97;16.38;;;3.80;99.90;;;;;;5110708;28;20478;-58
2024/01/06 04:08:09;;;;;;;32.33;14.93;;;2.40;99.90;;;;;;5113841;28;20115;-57
2024/01/06 04:10:34;;;;;;;32.42;14.98;;;3.70;99.90;;;;;;5113829;28;20028;-57
2024/01/06 04:13:00;;;;;;;33.17;14.90;;;2.90;99.90;;;;;;5114107;28;20047;-57
2024/01/06 04:15:26;;;;;;;30.88;14.52;;;3.60;99.90;;;;;;5113893;28;20035;-57
2024/01/06 04:17:52;;;;;;;37.25;15.55;;;2.50;99.90;;;;;;5113714;28;20047;-57
2024/01/06 04:20:18;;;;;;;33.47;14.73;;;2.70;99.90;;;;;;5098661;28;20039;-58
2024/01/06 04:22:44;;;;;;;33.15;15.27;;;3.70;99.90;;;;;;5113916;28;20039;-57
2024/01/06 04:25:10;;;;;;;36.45;13.82;;;2.30;99.90;;;;;;5089015;28;20407;-57
2024/01/06 04:27:36;;;;;;;35.65;15.10;;;2.40;99.90;;;;;;5112012;28;20040;-57
2024/01/06 04:30:01;;;;;;;30.63;14.20;;;2.30;99.90;;;;;;5113023;28;20043;-58
2024/01/06 04:32:27;;;;;;;31.42;13.65;;;2.50;99.90;;;;;;5113602;28;20124;-57
2024/01/06 04:34:53;;;;;;;28.10;13.57;;;2.30;99.90;;;;;;5111042;28;20074;-57
2024/01/06 04:37:18;;;;;;;29.67;13.93;;;3.10;99.90;;;;;;5105216;28;20398;-59
2024/01/06 04:39:44;;;;;;;32.75;15.70;;;2.50;99.90;;;;;;5031735;28;20460;-58
2024/01/06 04:42:10;;;;;;;29.05;14.15;;;3.70;99.90;;;;;;5029690;28;20511;-59
2024/01/06 04:44:35;;;;;;;33.10;15.68;;;2.80;99.90;;;;;;5096173;28;20129;-59
2024/01/06 04:47:01;;;;;;;31.63;12.93;;;2.20;99.90;;;;;;5107185;28;20036;-58
2024/01/06 04:49:27;;;;;;;29.88;13.05;;;2.60;99.90;;;;;;5109017;28;20031;-58
2024/01/06 04:51:52;;;;;;;32.80;14.00;;;3.30;99.90;;;;;;5107566;28;20047;-59
2024/01/06 04:54:18;;;;;;;34.22;12.98;;;2.80;99.90;;;;;;5026627;28;20039;-59
2024/01/06 04:56:43;;;;;;;35.00;14.85;;;2.90;99.90;;;;;;5113021;28;20071;-59
2024/01/06 04:59:09;;;;;;;33.28;14.90;;;2.10;99.90;;;;;;5112922;28;20390;-58
2024/01/06 05:01:35;;;;;;;31.73;14.05;;;2.70;99.90;;;;;;5113106;28;20483;-59
2024/01/06 05:04:00;;;;;;;39.15;16.30;;;3.60;99.90;;;;;;5112832;28;20039;-59
2024/01/06 05:06:27;;;;;;;32.47;14.73;;;3.10;99.90;;;;;;5112979;28;20042;-58
2024/01/06 05:08:52;;;;;;;31.73;15.23;;;3.40;99.90;;;;;;5025268;28;20047;-58
2024/01/06 05:11:18;;;;;;;32.40;14.27;;;2.70;99.90;;;;;;5090829;28;20035;-58
2024/01/06 05:13:43;;;;;;;36.80;15.70;;;3.20;99.90;;;;;;5112594;28;20197;-58
2024/01/06 05:16:09;;;;;;;38.40;15.30;;;3.50;99.90;;;;;;5105715;28;20046;-58
2024/01/06 05:18:35;;;;;;;32.20;14.93;;;3.20;99.90;;;;;;5037119;28;20045;-58
2024/01/06 05:21:01;;;;;;;32.67;13.18;;;2.90;99.90;;;;;;5112462;28;20501;-59
2024/01/06 05:23:27;;;;;;;31.70;15.40;;;2.30;99.90;;;;;;5113019;28;20043;-59
2024/01/06 05:25:53;;;;;;;33.60;15.27;;;3.30;99.90;;;;;;5112703;28;20390;-58
2024/01/06 05:28:19;;;;;;;43.15;15.77;;;2.20;99.90;;;;;;5112502;28;20122;-58
2024/01/06 05:30:44;;;;;;;41.92;16.33;;;2.10;99.90;;;;;;5112341;28;20550;-58
2024/01/06 05:33:12;;;;;;;32.42;13.95;;;2.70;99.90;;;;;;5112525;28;20032;-57
2024/01/06 05:35:39;;;;;;;32.40;14.27;;;2.30;99.90;;;;;;5112326;28;20039;-58
2024/01/06 05:38:04;;;;;;;30.73;12.88;;;2.50;99.90;;;;;;5077275;28;20035;-58
2024/01/06 05:40:30;;;;;;;31.33;14.60;;;3.40;99.90;;;;;;5053010;28;20050;-58
2024/01/06 05:42:56;;;;;;;31.20;13.82;;;2.10;99.90;;;;;;5112417;28;20060;-58
2024/01/06 05:45:22;;;;;;;35.50;13.07;;;2.50;99.90;;;;;;5092668;28;20082;-58
2024/01/06 05:47:48;;;;;;;33.83;13.80;;;2.00;99.90;;;;;;5100005;28;20126;-58
2024/01/06 05:50:16;;;;;;;33.20;13.45;;;2.80;99.90;;;;;;5087899;28;20046;-58
2024/01/06 05:52:42;;;;;;;34.05;13.93;;;2.50;99.90;;;;;;5111685;28;20031;-58
2024/01/06 05:55:11;;;;;;;31.00;12.43;;;3.40;99.90;;;;;;5089406;28;20114;-59
2024/01/06 05:57:37;;;;;;;37.22;13.88;;;2.90;99.90;;;;;;5080852;28;20158;-59
2024/01/06 06:00:03;;;;;;;36.78;14.80;;;2.90;99.90;;;;;;5104673;28;20076;-59
2024/01/06 06:02:28;;;;;;;37.55;14.07;;;3.00;99.90;;;;;;5106180;28;20035;-59
2024/01/06 06:04:54;;;;;;;30.83;13.40;;;3.30;99.90;;;;;;5107781;28;20042;-59
2024/01/06 06:07:20;;;;;;;30.27;14.63;;;2.10;99.90;;;;;;5111434;28;20044;-58
2024/01/06 06:09:48;;;;;;;25.05;13.55;;;3.30;99.90;;;;;;5111947;28;20028;-58
2024/01/06 06:12:14;;;;;;;29.77;13.95;;;3.20;99.90;;;;;;5111920;28;20028;-58
2024/01/06 06:14:40;;;;;;;30.90;13.43;;;2.90;99.90;;;;;;5111744;28;20028;-58
2024/01/06 06:17:07;;;;;;;39.30;15.73;;;2.60;99.90;;;;;;5111063;28;20032;-58
2024/01/06 06:19:32;;;;;;;33.53;13.55;;;1.70;99.90;;;;;;5111416;28;20031;-58
2024/01/06 06:21:58;;;;;;;34.25;14.48;;;1.80;99.90;;;;;;5111451;28;20543;-58
2024/01/06 06:24:24;;;;;;;33.72;13.95;;;2.30;99.90;;;;;;5109299;28;20573;-59
2024/01/06 06:26:49;;;;;;;33.63;13.25;;;1.90;99.90;;;;;;5110850;28;20070;-59
2024/01/06 06:29:15;;;;;;;37.97;14.32;;;1.80;99.90;;;;;;5111171;28;20027;-58
2024/01/06 06:31:42;;;;;;;37.20;15.13;;;3.30;99.90;;;;;;5111697;28;20039;-58
2024/01/06 06:34:09;;;;;;;43.63;15.60;;;2.70;99.90;;;;;;5111218;28;20048;-57
2024/01/06 06:36:35;;;;;;;35.88;13.27;;;2.10;99.90;;;;;;5111246;28;20103;-57
2024/01/06 06:39:01;;;;;;;43.03;15.00;;;3.30;99.90;;;;;;5109259;28;20543;-59
2024/01/06 06:41:26;;;;;;;38.95;14.07;;;2.00;99.90;;;;;;5080112;28;20047;-59
2024/01/06 06:43:52;;;;;;;36.17;15.18;;;2.30;99.90;;;;;;5107575;28;20052;-58
2024/01/06 06:46:18;;;;;;;37.95;17.52;;;2.80;99.90;;;;;;5111126;28;20047;-57
2024/01/06 06:48:43;;;;;;;42.35;18.58;;;1.80;99.90;;;;;;5101633;28;20035;-59
2024/01/06 06:51:10;;;;;;;38.35;15.15;;;1.80;99.90;;;;;;5071457;28;20116;-58
2024/01/06 06:53:36;;;;;;;39.67;16.23;;;2.30;99.90;;;;;;5027853;28;20038;-58
2024/01/06 06:56:02;;;;;;;35.33;15.70;;;1.90;99.90;;;;;;5027837;28;20059;-58
2024/01/06 06:58:27;;;;;;;34.45;15.20;;;3.30;99.90;;;;;;5027762;28;20053;-59
2024/01/06 07:00:54;;;;;;;38.35;16.88;;;3.20;99.90;;;;;;5025011;28;20050;-59
2024/01/06 07:03:20;;;;;;;35.58;16.13;;;3.10;99.90;;;;;;5075155;28;20092;-59
2024/01/06 07:05:46;;;;;;;41.72;15.63;;;2.10;99.90;;;;;;5097656;28;20047;-58
2024/01/06 07:08:13;;;;;;;39.00;14.85;;;1.90;99.90;;;;;;5102784;28;20217;-58
2024/01/06 07:10:39;;;;;;;33.88;15.07;;;2.40;99.90;;;;;;5114958;28;20036;-60
2024/01/06 07:13:05;;;;;;;35.78;14.65;;;2.50;99.90;;;;;;5042530;28;20090;-60
2024/01/06 07:15:30;;;;;;;34.42;14.48;;;2.50;99.90;;;;;;5088067;28;20043;-59
2024/01/06 07:17:56;;;;;;;33.13;14.30;;;3.20;99.90;;;;;;5114190;28;20440;-59
2024/01/06 07:20:22;;;;;;;33.30;14.23;;;2.10;99.90;;;;;;5114784;28;20481;-58
2024/01/06 07:22:47;;;;;;;33.33;14.35;;;1.90;99.90;;;;;;5114769;28;20092;-59
2024/01/06 07:25:13;;;;;;;37.00;15.70;;;2.80;99.90;;;;;;5085319;28;20040;-58
2024/01/06 07:27:39;;;;;;;34.92;14.68;;;3.00;99.90;;;;;;5111228;28;20128;-59
2024/01/06 07:30:07;;;;;;;48.22;18.58;;;3.10;99.90;;;;;;5010086;28;20049;-58
2024/01/06 07:32:33;;;;;;;42.60;17.60;;;3.10;99.90;;;;;;5079077;28;20041;-59
2024/01/06 07:34:59;;;;;;;39.05;17.08;;;3.00;99.90;;;;;;5101556;28;20032;-58
2024/01/06 07:37:25;;;;;;;40.13;15.63;;;2.20;99.90;;;;;;5093060;28;20042;-59
2024/01/06 07:39:51;;;;;;;36.45;15.35;;;1.90;99.90;;;;;;5068853;28;20054;-58
2024/01/06 07:42:17;;;;;;;32.13;14.27;;;1.80;99.90;;;;;;5102476;28;20044;-58
2024/01/06 07:44:44;;;;;;;34.53;15.75;;;2.80;99.90;;;;;;5113938;28;20108;-60
2024/01/06 07:47:10;;;;;;;30.45;16.20;;;1.70;99.90;;;;;;5114298;28;20668;-58
2024/01/06 07:49:36;;;;;;;32.13;14.23;;;3.00;99.90;;;;;;5113946;28;20071;-59
2024/01/06 07:52:02;;;;;;;32.63;13.32;;;2.90;99.90;;;;;;5114623;28;20055;-58
2024/01/06 07:54:28;;;;;;;30.98;14.93;;;3.20;99.90;;;;;;5049787;28;20809;-59
2024/01/06 07:56:53;;;;;;;29.50;14.52;;;3.10;99.90;;;;;;5030381;28;20040;-59
2024/01/06 07:59:19;;;;;;;31.50;14.30;;;1.70;99.90;;;;;;5080892;28;20382;-58
2024/01/06 08:01:45;;;;;;;30.33;13.10;;;2.30;99.90;;;;;;5102869;28;20104;-59
2024/01/06 08:04:10;;;;;;;37.05;14.25;;;3.10;99.90;;;;;;5102353;28;20031;-58
2024/01/06 08:06:36;;;;;;;33.80;14.05;;;1.60;99.90;;;;;;5113935;28;20071;-58
2024/01/06 08:09:03;;;;;;;31.73;14.20;;;2.30;99.90;;;;;;5114112;28;20020;-58
2024/01/06 08:11:29;;;;;;;28.88;13.63;;;1.70;99.90;;;;;;5114079;28;20070;-58
2024/01/06 08:13:54;;;;;;;30.38;14.13;;;3.10;99.90;;;;;;5087941;28;20409;-59
2024/01/06 08:16:21;;;;;;;25.90;13.95;;;1.70;99.90;;;;;;5025717;28;20053;-58
2024/01/06 08:18:46;;;;;;;31.30;14.75;;;2.60;99.90;;;;;;5032597;28;20041;-58
2024/01/06 08:21:12;;;;;;;30.65;14.07;;;2.80;99.90;;;;;;5034835;28;20387;-59
2024/01/06 08:23:38;;;;;;;25.98;12.32;;;1.90;99.90;;;;;;5033689;28;20128;-59
2024/01/06 08:26:05;;;;;;;31.92;14.43;;;2.10;99.90;;;;;;5031429;28;20042;-58
2024/01/06 08:28:30;;;;;;;28.15;12.52;;;3.10;99.90;;;;;;5018527;28;20091;-59
2024/01/06 08:30:56;;;;;;;24.90;13.07;;;1.70;99.90;;;;;;5034168;28;20430;-58
2024/01/06 08:33:22;;;;;;;27.52;11.73;;;1.80;99.90;;;;;;5003583;28;20099;-58
2024/01/06 08:35:48;;;;;;;25.00;12.93;;;2.10;99.90;;;;;;5034126;28;20034;-60
2024/01/06 08:38:14;;;;;;;29.23;12.85;;;2.90;99.90;;;;;;5026337;28;20366;-58
2024/01/06 08:40:40;;;;;;;28.23;12.63;;;2.20;99.90;;;;;;5017477;28;20091;-58
2024/01/06 08:43:05;;;;;;;25.30;13.20;;;2.20;99.90;;;;;;5021203;28;20086;-58
2024/01/06 08:45:31;;;;;;;28.20;14.48;;;2.00;99.90;;;;;;5029943;28;20031;-58
2024/01/06 08:47:57;;;;;;;28.45;14.00;;;1.80;99.90;;;;;;5016429;28;20045;-57
2024/01/06 08:50:22;;;;;;;27.40;14.20;;;3.20;99.90;;;;;;5024869;28;20125;-58
2024/01/06 08:52:48;;;;;;;25.08;13.48;;;1.80;99.90;;;;;;5033962;28;20042;-58
2024/01/06 08:55:16;;;;;;;26.50;13.70;;;2.30;99.90;;;;;;5032374;28;20499;-57
2024/01/06 08:57:42;;;;;;;25.80;13.23;;;2.70;99.90;;;;;;5023308;28;20037;-58
2024/01/06 09:00:09;;;;;;;26.70;12.95;;;1.90;99.90;;;;;;5022755;28;20093;-57
2024/01/06 09:02:34;;;;;;;25.80;12.85;;;2.30;99.90;;;;;;5028492;28;20073;-58
2024/01/06 09:05:00;;;;;;;26.15;12.27;;;2.00;99.90;;;;;;5030645;28;20080;-57
2024/01/06 09:07:26;;;;;;;27.65;14.02;;;3.40;99.90;;;;;;5029265;28;20035;-58
2024/01/06 09:09:51;;;;;;;27.23;13.25;;;2.90;99.90;;;;;;5003957;28;20114;-58
2024/01/06 09:12:17;;;;;;;24.38;12.63;;;1.90;99.90;;;;;;5018919;28;20110;-57
2024/01/06 09:14:43;;;;;;;27.33;14.07;;;1.90;99.90;;;;;;4999810;28;20461;-58
2024/01/06 09:17:08;;;;;;;24.48;13.00;;;2.30;99.90;;;;;;5016989;28;20038;-59
2024/01/06 09:19:34;;;;;;;27.15;12.73;;;1.90;99.90;;;;;;5014233;28;20091;-59
2024/01/06 09:22:00;;;;;;;27.58;13.95;;;2.80;99.90;;;;;;5036572;28;20109;-57
2024/01/06 09:24:26;;;;;;;28.20;15.55;;;3.00;99.90;;;;;;5026722;28;20133;-60
2024/01/06 09:26:51;;;;;;;28.95;15.63;;;3.20;99.90;;;;;;5020512;28;20050;-58
2024/01/06 09:29:17;;;;;;;30.20;14.80;;;2.00;99.90;;;;;;5008730;28;20026;-58
2024/01/06 09:31:43;;;;;;;31.80;14.75;;;3.20;99.90;;;;;;5015190;28;20044;-58
2024/01/06 09:34:12;;;;;;;31.55;14.63;;;3.20;99.90;;;;;;5018129;28;20056;-58
2024/01/06 09:36:38;;;;;;;30.08;14.52;;;2.30;99.90;;;;;;5022129;28;20053;-57
2024/01/06 09:39:04;;;;;;;26.98;13.88;;;2.40;99.90;;;;;;5020571;28;20038;-58
2024/01/06 09:41:31;;;;;;;28.33;15.65;;;2.60;99.90;;;;;;4999470;28;20077;-58
2024/01/06 09:43:56;;;;;;;31.50;14.80;;;2.30;99.90;;;;;;5032120;28;20045;-58
2024/01/06 09:46:27;;;;;;;33.67;15.40;;;3.10;99.90;;;;;;5023396;28;20486;-58
2024/01/06 09:48:54;;;;;;;27.55;14.73;;;2.10;99.90;;;;;;5000577;28;20033;-58
2024/01/06 09:51:21;;;;;;;32.88;15.55;;;2.00;99.90;;;;;;5018201;28;20126;-58
2024/01/06 09:53:59;;;;;;;30.90;16.10;;;2.80;99.90;;;;;;5017376;28;20039;-59
2024/01/06 09:56:26;;;;;;;30.15;14.75;;;3.30;99.90;;;;;;5028550;28;20473;-58
2024/01/06 09:58:52;;;;;;;30.05;15.55;;;2.00;99.90;;;;;;5025083;28;20026;-58
2024/01/06 10:01:18;;;;;;;30.05;16.00;;;2.20;99.90;;;;;;5016106;28;20053;-58
2024/01/06 10:03:47;;;;;;;30.02;15.50;;;2.80;99.90;;;;;;5021728;28;20042;-59
2024/01/06 10:06:14;;;;;;;30.80;14.30;;;3.10;99.90;;;;;;4998295;28;20053;-58
2024/01/06 10:08:42;;;;;;;27.23;15.32;;;2.20;99.90;;;;;;5012408;28;20034;-58
2024/01/06 10:11:09;;;;;;;27.50;15.07;;;2.70;99.90;;;;;;5018620;28;20087;-59
2024/01/06 10:13:35;;;;;;;30.95;16.45;;;3.10;99.90;;;;;;5024129;28;20034;-57
2024/01/06 10:16:01;;;;;;;27.30;14.90;;;3.10;99.90;;;;;;5026930;28;20118;-58
2024/01/06 10:18:29;;;;;;;31.20;15.95;;;2.20;99.90;;;;;;5030028;28;20062;-58
2024/01/06 10:20:56;;;;;;;34.22;16.73;;;2.70;99.90;;;;;;5017967;28;20038;-58
2024/01/06 10:23:27;;;;;;;31.92;15.95;;;2.30;99.90;;;;;;5015212;28;20062;-58
2024/01/06 10:25:56;;;;;;;32.63;16.80;;;3.40;99.90;;;;;;5025715;28;20125;-58
2024/01/06 10:28:22;;;;;;;32.58;16.27;;;3.10;99.90;;;;;;5028671;28;20039;-58
2024/01/06 10:30:51;;;;;;;35.65;17.80;;;3.20;99.90;;;;;;5016967;28;20033;-58
2024/01/06 10:33:16;;;;;;;32.05;16.63;;;3.60;99.90;;;;;;5022104;28;20035;-57
2024/01/06 10:35:42;;;;;;;32.78;17.27;;;2.20;99.90;;;;;;5018704;28;20487;-58
2024/01/06 10:38:08;;;;;;;33.15;16.33;;;2.30;99.90;;;;;;5029696;28;20041;-59
2024/01/06 10:40:34;;;;;;;33.95;16.23;;;2.90;99.90;;;;;;5023546;28;20058;-58
2024/01/06 10:43:00;;;;;;;31.55;17.85;;;2.90;99.90;;;;;;5024840;28;20164;-59
2024/01/06 10:45:28;;;;;;;29.50;15.82;;;2.50;99.90;;;;;;5021871;28;20478;-58
2024/01/06 10:47:55;;;;;;;32.30;16.77;;;2.20;99.90;;;;;;5019708;28;20037;-57
2024/01/06 10:50:22;;;;;;;30.90;16.17;;;2.60;99.90;;;;;;5027659;28;20437;-58
2024/01/06 10:52:48;;;;;;;33.70;16.30;;;3.40;99.90;;;;;;5019297;28;20037;-59
2024/01/06 10:55:17;;;;;;;33.58;16.67;;;2.70;99.90;;;;;;5009420;28;20037;-59
2024/01/06 10:57:45;;;;;;;33.60;17.23;;;2.80;99.90;;;;;;5023081;28;20636;-57
2024/01/06 11:00:11;;;;;;;28.45;15.93;;;3.10;99.90;;;;;;5013250;28;20098;-58
2024/01/06 11:02:38;;;;;;;27.83;14.02;;;3.20;99.90;;;;;;5022179;28;20037;-57
2024/01/06 11:05:07;;;;;;;24.85;13.55;;;2.60;99.90;;;;;;5001983;28;20121;-59
2024/01/06 11:07:35;;;;;;;25.00;13.43;;;3.20;99.90;;;;;;5025797;28;20047;-57
2024/01/06 11:10:17;;;;;;;26.50;13.35;;;2.90;99.90;;;;;;5019011;28;20042;-57
2024/01/06 11:12:43;;;;;;;29.52;14.57;;;2.70;99.90;;;;;;5018873;28;20041;-58
2024/01/06 11:15:09;;;;;;;25.55;13.07;;;2.40;99.90;;;;;;5029182;28;20049;-59
2024/01/06 11:17:58;;;;;;;24.48;12.63;;;2.50;99.90;;;;;;5014357;28;20493;-58
2024/01/06 11:20:24;;;;;;;24.95;13.20;;;2.40;99.90;;;;;;5024046;28;20038;-59
2024/01/06 11:22:50;;;;;;;26.42;13.45;;;2.80;99.90;;;;;;5026959;28;20050;-57
2024/01/06 11:25:20;;;;;;;22.05;12.85;;;3.00;99.90;;;;;;5066970;28;20119;-58
2024/01/06 11:27:48;;;;;;;22.17;12.13;;;2.60;99.90;;;;;;5079752;28;20117;-58
2024/01/06 11:30:24;;;;;;;23.05;12.18;;;3.10;99.90;;;;;;5057137;28;20085;-56
2024/01/06 11:32:58;;;;;;;24.60;11.80;;;2.40;99.90;;;;;;5062852;28;20042;-58
2024/01/06 11:35:29;;;;;;;22.67;12.35;;;2.60;99.90;;;;;;5076642;28;20039;-58
2024/01/06 11:37:57;;;;;;;23.73;12.63;;;3.20;99.90;;;;;;5093777;28;20062;-58
2024/01/06 11:40:25;;;;;;;24.80;13.38;;;3.20;99.90;;;;;;5074597;28;20055;-57
2024/01/06 11:43:09;;;;;;;24.77;13.75;;;2.60;99.90;;;;;;5057617;28;20038;-58
2024/01/06 11:45:36;;;;;;;25.13;14.23;;;2.40;99.90;;;;;;5079557;28;20051;-58
2024/01/06 11:48:07;;;;;;;28.05;14.23;;;2.40;99.90;;;;;;5048633;28;20714;-58
2024/01/06 11:50:38;;;;;;;22.42;12.52;;;2.40;99.90;;;;;;5040731;28;20044;-59
2024/01/06 11:53:05;;;;;;;23.73;13.68;;;2.80;99.90;;;;;;5079247;28;20034;-58
2024/01/06 11:55:31;;;;;;;26.10;13.85;;;2.40;99.90;;;;;;5091585;28;20039;-58
2024/01/06 11:58:01;;;;;;;26.05;12.82;;;2.80;99.90;;;;;;5093088;28;20035;-58
2024/01/06 12:00:27;;;;;;;22.00;12.27;;;2.50;99.90;;;;;;5081190;28;20035;-58
2024/01/06 12:03:00;;;;;;;22.27;13.40;;;2.50;99.90;;;;;;5020777;28;20117;-58
2024/01/06 12:05:27;;;;;;;22.52;12.77;;;2.90;99.90;;;;;;5071102;28;20116;-57
2024/01/06 12:07:58;;;;;;;24.70;11.80;;;3.40;99.90;;;;;;5076430;28;20050;-58
2024/01/06 12:10:25;;;;;;;26.17;13.75;;;2.70;99.90;;;;;;5061174;28;20062;-59
2024/01/06 12:13:02;;;;;;;23.33;12.65;;;3.20;99.90;;;;;;5053371;28;20044;-57
2024/01/06 12:15:30;;;;;;;22.23;11.20;;;2.80;99.90;;;;;;5050013;28;20032;-58
2024/01/06 12:17:56;;;;;;;24.38;13.30;;;3.20;99.90;;;;;;5029635;28;20507;-59
2024/01/06 12:20:23;;;;;;;26.55;13.43;;;3.20;99.90;;;;;;5050139;28;20174;-58
2024/01/06 12:22:51;;;;;;;24.17;12.98;;;2.70;99.90;;;;;;5027200;28;20049;-58
2024/01/06 12:25:17;;;;;;;23.90;12.43;;;2.80;99.90;;;;;;5058579;28;20039;-59
2024/01/06 12:27:44;;;;;;;22.92;12.30;;;2.40;99.90;;;;;;5046962;28;20047;-57
2024/01/06 12:30:18;;;;;;;21.30;12.93;;;2.80;99.90;;;;;;5054225;28;20036;-59
2024/01/06 12:32:46;;;;;;;27.23;13.20;;;3.00;99.90;;;;;;5054950;28;20023;-55